sensor_id;sensor_type;location;lat;lon;timestamp;P1;durP1;ratioP1;P2;durP2;ratioP2
11263;SDS011;5689;48.798;9.070;2024-02-16T00:01:15;0.20;;;0.20;;
11263;SDS011;5689;48.798;9.070;2024-02-16T00:03:43;0.20;;;0.20;;
11263;SDS011;5689;48.798;9.070;2024-02-16T00:06:12;0.32;;;0.32;;
11263;SDS011;5689;48.798;9.070;2024-02-16T00:08:40;0.30;;;0.30;;
11263;SDS011;5689;48.798;9.070;2024-02-16T00:11:08;0.20;;;0.20;;
11263;SDS011;5689;48.798;9.070;2024-02-16T00:13:36;0.20;;;0.20;;
11263;SDS011;5689;48.798;9.070;2024-02-16T00:16:06;0.30;;;0.30;;
11263;SDS011;5689;48.798;9.070;2024-02-16T00:18:34;0.30;;;0.30;;
11263;SDS011;5689;48.798;9.070;2024-02-16T00:21:02;0.30;;;0.30;;
11263;SDS011;5689;48.798;9.070;2024-02-16T00:23:31;0.20;;;0.20;;
11263;SDS011;5689;48.798;9.070;2024-02-16T00:26:01;0.30;;;0.30;;
11263;SDS011;5689;48.798;9.070;2024-02-16T00:28:33;0.20;;;0.20;;
11263;SDS011;5689;48.798;9.070;2024-02-16T00:31:01;0.20;;;0.20;;
11263;SDS011;5689;48.798;9.070;2024-02-16T00:33:33;0.20;;;0.20;;
11263;SDS011;5689;48.798;9.070;2024-02-16T00:36:01;0.20;;;0.20;;
11263;SDS011;5689;48.798;9.070;2024-02-16T00:38:29;0.20;;;0.20;;
11263;SDS011;5689;48.798;9.070;2024-02-16T00:40:57;0.20;;;0.20;;
11263;SDS011;5689;48.798;9.070;2024-02-16T00:43:26;0.20;;;0.20;;
11263;SDS011;5689;48.798;9.070;2024-02-16T00:45:55;0.20;;;0.20;;
11263;SDS011;5689;48.798;9.070;2024-02-16T00:48:23;0.25;;;0.25;;
11263;SDS011;5689;48.798;9.070;2024-02-16T00:50:52;0.20;;;0.20;;
11263;SDS011;5689;48.798;9.070;2024-02-16T00:53:21;0.30;;;0.30;;
11263;SDS011;5689;48.798;9.070;2024-02-16T00:55:49;0.20;;;0.20;;
11263;SDS011;5689;48.798;9.070;2024-02-16T00:58:17;0.20;;;0.20;;
11263;SDS011;5689;48.798;9.070;2024-02-16T01:00:46;0.30;;;0.30;;
11263;SDS011;5689;48.798;9.070;2024-02-16T01:03:14;0.20;;;0.20;;
11263;SDS011;5689;48.798;9.070;2024-02-16T01:05:42;0.20;;;0.20;;
11263;SDS011;5689;48.798;9.070;2024-02-16T01:08:11;0.22;;;0.22;;
11263;SDS011;5689;48.798;9.070;2024-02-16T01:10:39;0.30;;;0.30;;
11263;SDS011;5689;48.798;9.070;2024-02-16T01:13:07;0.28;;;0.28;;
11263;SDS011;5689;48.798;9.070;2024-02-16T01:15:36;0.28;;;0.28;;
11263;SDS011;5689;48.798;9.070;2024-02-16T01:18:04;0.30;;;0.30;;
11263;SDS011;5689;48.798;9.070;2024-02-16T01:20:32;0.20;;;0.20;;
11263;SDS011;5689;48.798;9.070;2024-02-16T01:23:01;0.30;;;0.30;;
11263;SDS011;5689;48.798;9.070;2024-02-16T01:25:32;0.22;;;0.22;;
11263;SDS011;5689;48.798;9.070;2024-02-16T01:28:01;0.30;;;0.30;;
11263;SDS011;5689;48.798;9.070;2024-02-16T01:30:29;0.20;;;0.20;;
11263;SDS011;5689;48.798;9.070;2024-02-16T01:32:57;0.30;;;0.30;;
11263;SDS011;5689;48.798;9.070;2024-02-16T01:35:25;0.22;;;0.22;;
11263;SDS011;5689;48.798;9.070;2024-02-16T01:37:53;0.28;;;0.28;;
11263;SDS011;5689;48.798;9.070;2024-02-16T01:40:21;0.40;;;0.40;;
11263;SDS011;5689;48.798;9.070;2024-02-16T01:42:53;0.30;;;0.30;;
11263;SDS011;5689;48.798;9.070;2024-02-16T01:45:22;0.30;;;0.30;;
11263;SDS011;5689;48.798;9.070;2024-02-16T01:47:50;0.20;;;0.20;;
11263;SDS011;5689;48.798;9.070;2024-02-16T01:50:19;0.22;;;0.22;;
11263;SDS011;5689;48.798;9.070;2024-02-16T01:52:48;0.20;;;0.20;;
11263;SDS011;5689;48.798;9.070;2024-02-16T01:55:17;0.20;;;0.20;;
11263;SDS011;5689;48.798;9.070;2024-02-16T01:57:48;0.20;;;0.20;;
11263;SDS011;5689;48.798;9.070;2024-02-16T02:00:17;0.20;;;0.20;;
11263;SDS011;5689;48.798;9.070;2024-02-16T02:02:45;0.20;;;0.20;;
11263;SDS011;5689;48.798;9.070;2024-02-16T02:05:14;0.20;;;0.20;;
11263;SDS011;5689;48.798;9.070;2024-02-16T02:07:42;0.20;;;0.20;;
11263;SDS011;5689;48.798;9.070;2024-02-16T02:10:10;0.30;;;0.30;;
11263;SDS011;5689;48.798;9.070;2024-02-16T02:12:39;0.20;;;0.20;;
11263;SDS011;5689;48.798;9.070;2024-02-16T02:15:08;0.20;;;0.20;;
11263;SDS011;5689;48.798;9.070;2024-02-16T02:17:39;0.20;;;0.20;;
11263;SDS011;5689;48.798;9.070;2024-02-16T02:20:07;0.20;;;0.20;;
11263;SDS011;5689;48.798;9.070;2024-02-16T02:22:39;0.30;;;0.30;;
11263;SDS011;5689;48.798;9.070;2024-02-16T02:25:07;0.20;;;0.20;;
11263;SDS011;5689;48.798;9.070;2024-02-16T02:27:37;0.30;;;0.30;;
11263;SDS011;5689;48.798;9.070;2024-02-16T02:30:06;0.20;;;0.20;;
11263;SDS011;5689;48.798;9.070;2024-02-16T02:32:35;0.30;;;0.30;;
11263;SDS011;5689;48.798;9.070;2024-02-16T02:35:05;0.20;;;0.20;;
11263;SDS011;5689;48.798;9.070;2024-02-16T02:37:35;0.20;;;0.20;;
11263;SDS011;5689;48.798;9.070;2024-02-16T02:40:05;0.20;;;0.20;;
11263;SDS011;5689;48.798;9.070;2024-02-16T02:42:34;0.30;;;0.30;;
11263;SDS011;5689;48.798;9.070;2024-02-16T02:45:03;0.22;;;0.22;;
11263;SDS011;5689;48.798;9.070;2024-02-16T02:47:32;0.20;;;0.20;;
11263;SDS011;5689;48.798;9.070;2024-02-16T02:50:00;0.20;;;0.20;;
11263;SDS011;5689;48.798;9.070;2024-02-16T02:52:29;0.20;;;0.20;;
11263;SDS011;5689;48.798;9.070;2024-02-16T02:54:57;0.20;;;0.20;;
11263;SDS011;5689;48.798;9.070;2024-02-16T02:57:26;0.20;;;0.20;;
11263;SDS011;5689;48.798;9.070;2024-02-16T02:59:56;0.20;;;0.20;;
11263;SDS011;5689;48.798;9.070;2024-02-16T03:02:32;0.20;;;0.20;;
11263;SDS011;5689;48.798;9.070;2024-02-16T03:05:00;0.20;;;0.20;;
11263;SDS011;5689;48.798;9.070;2024-02-16T03:07:28;0.20;;;0.20;;
11263;SDS011;5689;48.798;9.070;2024-02-16T03:09:59;0.20;;;0.20;;
11263;SDS011;5689;48.798;9.070;2024-02-16T03:12:29;0.20;;;0.20;;
11263;SDS011;5689;48.798;9.070;2024-02-16T03:14:57;0.20;;;0.20;;
11263;SDS011;5689;48.798;9.070;2024-02-16T03:17:25;0.20;;;0.20;;
11263;SDS011;5689;48.798;9.070;2024-02-16T03:19:53;0.20;;;0.20;;
11263;SDS011;5689;48.798;9.070;2024-02-16T03:22:22;0.30;;;0.30;;
11263;SDS011;5689;48.798;9.070;2024-02-16T03:24:50;0.30;;;0.30;;
11263;SDS011;5689;48.798;9.070;2024-02-16T03:27:18;0.30;;;0.30;;
11263;SDS011;5689;48.798;9.070;2024-02-16T03:29:48;0.20;;;0.20;;
11263;SDS011;5689;48.798;9.070;2024-02-16T03:32:16;0.20;;;0.20;;
11263;SDS011;5689;48.798;9.070;2024-02-16T03:34:44;0.20;;;0.20;;
11263;SDS011;5689;48.798;9.070;2024-02-16T03:37:12;0.20;;;0.20;;
11263;SDS011;5689;48.798;9.070;2024-02-16T03:39:40;0.30;;;0.30;;
11263;SDS011;5689;48.798;9.070;2024-02-16T03:42:09;0.20;;;0.20;;
11263;SDS011;5689;48.798;9.070;2024-02-16T03:44:37;0.30;;;0.30;;
11263;SDS011;5689;48.798;9.070;2024-02-16T03:47:07;0.20;;;0.20;;
11263;SDS011;5689;48.798;9.070;2024-02-16T03:49:35;0.25;;;0.25;;
11263;SDS011;5689;48.798;9.070;2024-02-16T03:52:04;0.30;;;0.30;;
11263;SDS011;5689;48.798;9.070;2024-02-16T03:54:33;0.38;;;0.38;;
11263;SDS011;5689;48.798;9.070;2024-02-16T03:57:01;0.20;;;0.20;;
11263;SDS011;5689;48.798;9.070;2024-02-16T03:59:30;0.20;;;0.20;;
11263;SDS011;5689;48.798;9.070;2024-02-16T04:01:59;0.22;;;0.22;;
11263;SDS011;5689;48.798;9.070;2024-02-16T04:04:28;0.20;;;0.20;;
11263;SDS011;5689;48.798;9.070;2024-02-16T04:06:56;0.30;;;0.30;;
11263;SDS011;5689;48.798;9.070;2024-02-16T04:09:24;0.20;;;0.20;;
11263;SDS011;5689;48.798;9.070;2024-02-16T04:11:52;0.30;;;0.30;;
11263;SDS011;5689;48.798;9.070;2024-02-16T04:14:21;0.20;;;0.20;;
11263;SDS011;5689;48.798;9.070;2024-02-16T04:16:49;0.20;;;0.20;;
11263;SDS011;5689;48.798;9.070;2024-02-16T04:19:17;0.20;;;0.20;;
11263;SDS011;5689;48.798;9.070;2024-02-16T04:21:46;0.20;;;0.20;;
11263;SDS011;5689;48.798;9.070;2024-02-16T04:24:15;0.30;;;0.30;;
11263;SDS011;5689;48.798;9.070;2024-02-16T04:26:43;0.30;;;0.30;;
11263;SDS011;5689;48.798;9.070;2024-02-16T04:29:11;0.20;;;0.20;;
11263;SDS011;5689;48.798;9.070;2024-02-16T04:31:39;0.30;;;0.30;;
11263;SDS011;5689;48.798;9.070;2024-02-16T04:34:08;0.22;;;0.22;;
11263;SDS011;5689;48.798;9.070;2024-02-16T04:36:36;0.30;;;0.30;;
11263;SDS011;5689;48.798;9.070;2024-02-16T04:39:06;0.30;;;0.30;;
11263;SDS011;5689;48.798;9.070;2024-02-16T04:41:36;0.30;;;0.30;;
11263;SDS011;5689;48.798;9.070;2024-02-16T04:44:04;0.30;;;0.30;;
11263;SDS011;5689;48.798;9.070;2024-02-16T04:46:33;0.30;;;0.30;;
11263;SDS011;5689;48.798;9.070;2024-02-16T04:49:01;0.22;;;0.22;;
11263;SDS011;5689;48.798;9.070;2024-02-16T04:51:29;0.30;;;0.30;;
11263;SDS011;5689;48.798;9.070;2024-02-16T04:53:57;0.30;;;0.30;;
11263;SDS011;5689;48.798;9.070;2024-02-16T04:56:26;0.20;;;0.20;;
11263;SDS011;5689;48.798;9.070;2024-02-16T04:58:54;0.47;;;0.47;;
11263;SDS011;5689;48.798;9.070;2024-02-16T05:01:22;0.30;;;0.30;;
11263;SDS011;5689;48.798;9.070;2024-02-16T05:03:51;0.30;;;0.30;;
11263;SDS011;5689;48.798;9.070;2024-02-16T05:06:19;0.20;;;0.20;;
11263;SDS011;5689;48.798;9.070;2024-02-16T05:08:47;0.30;;;0.30;;
11263;SDS011;5689;48.798;9.070;2024-02-16T05:11:15;0.30;;;0.30;;
11263;SDS011;5689;48.798;9.070;2024-02-16T05:13:45;0.20;;;0.20;;
11263;SDS011;5689;48.798;9.070;2024-02-16T05:16:14;0.20;;;0.20;;
11263;SDS011;5689;48.798;9.070;2024-02-16T05:18:43;0.30;;;0.30;;
11263;SDS011;5689;48.798;9.070;2024-02-16T05:21:11;0.30;;;0.30;;
11263;SDS011;5689;48.798;9.070;2024-02-16T05:23:39;0.20;;;0.20;;
11263;SDS011;5689;48.798;9.070;2024-02-16T05:26:07;0.22;;;0.22;;
11263;SDS011;5689;48.798;9.070;2024-02-16T05:28:35;0.30;;;0.30;;
11263;SDS011;5689;48.798;9.070;2024-02-16T05:31:12;0.20;;;0.20;;
11263;SDS011;5689;48.798;9.070;2024-02-16T05:33:42;0.40;;;0.40;;
11263;SDS011;5689;48.798;9.070;2024-02-16T05:36:12;0.30;;;0.30;;
11263;SDS011;5689;48.798;9.070;2024-02-16T05:38:40;0.35;;;0.35;;
11263;SDS011;5689;48.798;9.070;2024-02-16T05:41:09;0.30;;;0.30;;
11263;SDS011;5689;48.798;9.070;2024-02-16T05:43:39;0.30;;;0.30;;
11263;SDS011;5689;48.798;9.070;2024-02-16T05:46:13;0.30;;;0.30;;
11263;SDS011;5689;48.798;9.070;2024-02-16T05:48:42;0.30;;;0.30;;
11263;SDS011;5689;48.798;9.070;2024-02-16T05:51:10;0.25;;;0.25;;
11263;SDS011;5689;48.798;9.070;2024-02-16T05:53:39;0.30;;;0.30;;
11263;SDS011;5689;48.798;9.070;2024-02-16T05:56:08;0.40;;;0.40;;
11263;SDS011;5689;48.798;9.070;2024-02-16T05:58:36;0.32;;;0.32;;
11263;SDS011;5689;48.798;9.070;2024-02-16T06:01:05;0.30;;;0.30;;
11263;SDS011;5689;48.798;9.070;2024-02-16T06:03:34;0.30;;;0.30;;
11263;SDS011;5689;48.798;9.070;2024-02-16T06:06:02;0.40;;;0.40;;
11263;SDS011;5689;48.798;9.070;2024-02-16T06:08:30;0.30;;;0.30;;
11263;SDS011;5689;48.798;9.070;2024-02-16T06:10:58;0.30;;;0.30;;
11263;SDS011;5689;48.798;9.070;2024-02-16T06:13:28;0.20;;;0.20;;
11263;SDS011;5689;48.798;9.070;2024-02-16T06:15:56;0.30;;;0.30;;
11263;SDS011;5689;48.798;9.070;2024-02-16T06:18:24;0.30;;;0.30;;
11263;SDS011;5689;48.798;9.070;2024-02-16T06:20:57;0.30;;;0.30;;
11263;SDS011;5689;48.798;9.070;2024-02-16T06:23:25;0.30;;;0.30;;
11263;SDS011;5689;48.798;9.070;2024-02-16T06:25:53;0.20;;;0.20;;
11263;SDS011;5689;48.798;9.070;2024-02-16T06:28:21;0.30;;;0.30;;
11263;SDS011;5689;48.798;9.070;2024-02-16T06:30:50;0.20;;;0.20;;
11263;SDS011;5689;48.798;9.070;2024-02-16T06:33:18;0.30;;;0.30;;
11263;SDS011;5689;48.798;9.070;2024-02-16T06:35:47;0.30;;;0.30;;
11263;SDS011;5689;48.798;9.070;2024-02-16T06:38:18;0.30;;;0.30;;
11263;SDS011;5689;48.798;9.070;2024-02-16T06:40:46;0.30;;;0.30;;
11263;SDS011;5689;48.798;9.070;2024-02-16T06:43:14;0.43;;;0.43;;
11263;SDS011;5689;48.798;9.070;2024-02-16T06:45:42;0.30;;;0.30;;
11263;SDS011;5689;48.798;9.070;2024-02-16T06:48:10;0.40;;;0.40;;
11263;SDS011;5689;48.798;9.070;2024-02-16T06:50:38;0.38;;;0.38;;
11263;SDS011;5689;48.798;9.070;2024-02-16T06:53:07;0.30;;;0.30;;
11263;SDS011;5689;48.798;9.070;2024-02-16T06:55:36;0.30;;;0.30;;
11263;SDS011;5689;48.798;9.070;2024-02-16T06:58:04;0.32;;;0.32;;
11263;SDS011;5689;48.798;9.070;2024-02-16T07:00:32;0.30;;;0.30;;
11263;SDS011;5689;48.798;9.070;2024-02-16T07:03:01;0.38;;;0.38;;
11263;SDS011;5689;48.798;9.070;2024-02-16T07:05:30;0.30;;;0.30;;
11263;SDS011;5689;48.798;9.070;2024-02-16T07:08:00;0.30;;;0.30;;
11263;SDS011;5689;48.798;9.070;2024-02-16T07:10:28;0.20;;;0.20;;
11263;SDS011;5689;48.798;9.070;2024-02-16T07:12:57;0.30;;;0.30;;
11263;SDS011;5689;48.798;9.070;2024-02-16T07:15:25;0.35;;;0.35;;
11263;SDS011;5689;48.798;9.070;2024-02-16T07:17:53;0.30;;;0.30;;
11263;SDS011;5689;48.798;9.070;2024-02-16T07:20:22;0.28;;;0.28;;
11263;SDS011;5689;48.798;9.070;2024-02-16T07:22:50;0.30;;;0.30;;
11263;SDS011;5689;48.798;9.070;2024-02-16T07:25:19;0.30;;;0.30;;
11263;SDS011;5689;48.798;9.070;2024-02-16T07:27:47;0.32;;;0.32;;
11263;SDS011;5689;48.798;9.070;2024-02-16T07:30:17;0.30;;;0.30;;
11263;SDS011;5689;48.798;9.070;2024-02-16T07:32:47;0.38;;;0.38;;
11263;SDS011;5689;48.798;9.070;2024-02-16T07:35:16;0.30;;;0.30;;
11263;SDS011;5689;48.798;9.070;2024-02-16T07:37:46;0.30;;;0.30;;
11263;SDS011;5689;48.798;9.070;2024-02-16T07:40:14;0.30;;;0.30;;
11263;SDS011;5689;48.798;9.070;2024-02-16T07:42:43;0.30;;;0.30;;
11263;SDS011;5689;48.798;9.070;2024-02-16T07:45:12;0.30;;;0.30;;
11263;SDS011;5689;48.798;9.070;2024-02-16T07:47:41;0.30;;;0.30;;
11263;SDS011;5689;48.798;9.070;2024-02-16T07:50:09;0.20;;;0.20;;
11263;SDS011;5689;48.798;9.070;2024-02-16T07:52:38;0.30;;;0.30;;
11263;SDS011;5689;48.798;9.070;2024-02-16T07:55:06;0.20;;;0.20;;
11263;SDS011;5689;48.798;9.070;2024-02-16T07:57:35;0.20;;;0.20;;
11263;SDS011;5689;48.798;9.070;2024-02-16T08:00:04;0.20;;;0.20;;
11263;SDS011;5689;48.798;9.070;2024-02-16T08:02:34;0.20;;;0.20;;
11263;SDS011;5689;48.798;9.070;2024-02-16T08:05:04;0.10;;;0.10;;
11263;SDS011;5689;48.798;9.070;2024-02-16T08:07:34;0.10;;;0.10;;
11263;SDS011;5689;48.798;9.070;2024-02-16T08:10:02;0.10;;;0.10;;
11263;SDS011;5689;48.798;9.070;2024-02-16T08:12:31;0.10;;;0.10;;
11263;SDS011;5689;48.798;9.070;2024-02-16T08:14:59;0.10;;;0.10;;
11263;SDS011;5689;48.798;9.070;2024-02-16T08:17:27;0.10;;;0.10;;
11263;SDS011;5689;48.798;9.070;2024-02-16T08:19:55;0.10;;;0.10;;
11263;SDS011;5689;48.798;9.070;2024-02-16T08:22:24;0.10;;;0.10;;
11263;SDS011;5689;48.798;9.070;2024-02-16T08:24:52;0.10;;;0.10;;
11263;SDS011;5689;48.798;9.070;2024-02-16T08:27:21;0.10;;;0.10;;
11263;SDS011;5689;48.798;9.070;2024-02-16T08:29:49;0.10;;;0.10;;
11263;SDS011;5689;48.798;9.070;2024-02-16T08:32:18;0.10;;;0.10;;
11263;SDS011;5689;48.798;9.070;2024-02-16T08:34:47;0.10;;;0.10;;
11263;SDS011;5689;48.798;9.070;2024-02-16T08:37:16;0.10;;;0.10;;
11263;SDS011;5689;48.798;9.070;2024-02-16T08:39:45;0.05;;;0.05;;
11263;SDS011;5689;48.798;9.070;2024-02-16T08:42:13;0.00;;;0.00;;
11263;SDS011;5689;48.798;9.070;2024-02-16T08:44:41;0.00;;;0.00;;
11263;SDS011;5689;48.798;9.070;2024-02-16T08:47:10;0.10;;;0.10;;
11263;SDS011;5689;48.798;9.070;2024-02-16T08:49:38;0.00;;;0.00;;
11263;SDS011;5689;48.798;9.070;2024-02-16T08:52:06;0.10;;;0.10;;
11263;SDS011;5689;48.798;9.070;2024-02-16T08:54:34;0.10;;;0.10;;
11263;SDS011;5689;48.798;9.070;2024-02-16T08:57:04;0.05;;;0.05;;
11263;SDS011;5689;48.798;9.070;2024-02-16T08:59:33;0.00;;;0.00;;
11263;SDS011;5689;48.798;9.070;2024-02-16T09:02:01;0.00;;;0.00;;
11263;SDS011;5689;48.798;9.070;2024-02-16T09:04:30;0.10;;;0.10;;
11263;SDS011;5689;48.798;9.070;2024-02-16T09:06:58;0.00;;;0.00;;
11263;SDS011;5689;48.798;9.070;2024-02-16T09:09:27;0.10;;;0.10;;
11263;SDS011;5689;48.798;9.070;2024-02-16T09:11:55;0.10;;;0.10;;
11263;SDS011;5689;48.798;9.070;2024-02-16T09:14:25;0.10;;;0.10;;
11263;SDS011;5689;48.798;9.070;2024-02-16T09:16:53;0.10;;;0.10;;
11263;SDS011;5689;48.798;9.070;2024-02-16T09:19:21;0.10;;;0.10;;
11263;SDS011;5689;48.798;9.070;2024-02-16T09:21:49;0.10;;;0.10;;
11263;SDS011;5689;48.798;9.070;2024-02-16T09:24:21;0.10;;;0.10;;
11263;SDS011;5689;48.798;9.070;2024-02-16T09:26:54;0.10;;;0.10;;
11263;SDS011;5689;48.798;9.070;2024-02-16T09:29:22;0.10;;;0.10;;
11263;SDS011;5689;48.798;9.070;2024-02-16T09:31:52;0.10;;;0.10;;
11263;SDS011;5689;48.798;9.070;2024-02-16T09:34:20;0.10;;;0.10;;
11263;SDS011;5689;48.798;9.070;2024-02-16T09:36:48;0.10;;;0.10;;
11263;SDS011;5689;48.798;9.070;2024-02-16T09:39:17;0.00;;;0.00;;
11263;SDS011;5689;48.798;9.070;2024-02-16T09:41:45;0.10;;;0.10;;
11263;SDS011;5689;48.798;9.070;2024-02-16T09:44:17;0.10;;;0.10;;
11263;SDS011;5689;48.798;9.070;2024-02-16T09:46:47;0.10;;;0.10;;
11263;SDS011;5689;48.798;9.070;2024-02-16T09:49:18;0.10;;;0.10;;
11263;SDS011;5689;48.798;9.070;2024-02-16T09:51:50;0.15;;;0.15;;
11263;SDS011;5689;48.798;9.070;2024-02-16T09:54:19;0.10;;;0.10;;
11263;SDS011;5689;48.798;9.070;2024-02-16T09:56:47;0.10;;;0.10;;
11263;SDS011;5689;48.798;9.070;2024-02-16T09:59:15;0.10;;;0.10;;
11263;SDS011;5689;48.798;9.070;2024-02-16T10:01:43;0.10;;;0.10;;
11263;SDS011;5689;48.798;9.070;2024-02-16T10:04:11;0.10;;;0.10;;
11263;SDS011;5689;48.798;9.070;2024-02-16T10:06:47;0.10;;;0.10;;
11263;SDS011;5689;48.798;9.070;2024-02-16T10:09:22;0.10;;;0.10;;
11263;SDS011;5689;48.798;9.070;2024-02-16T10:11:51;0.10;;;0.10;;
11263;SDS011;5689;48.798;9.070;2024-02-16T10:14:19;0.00;;;0.00;;
11263;SDS011;5689;48.798;9.070;2024-02-16T10:16:58;0.10;;;0.10;;
11263;SDS011;5689;48.798;9.070;2024-02-16T10:19:27;0.08;;;0.08;;
11263;SDS011;5689;48.798;9.070;2024-02-16T10:22:04;0.10;;;0.10;;
11263;SDS011;5689;48.798;9.070;2024-02-16T10:24:34;0.10;;;0.10;;
11263;SDS011;5689;48.798;9.070;2024-02-16T10:27:05;0.10;;;0.10;;
11263;SDS011;5689;48.798;9.070;2024-02-16T10:29:34;0.10;;;0.10;;
11263;SDS011;5689;48.798;9.070;2024-02-16T10:32:03;0.00;;;0.00;;
11263;SDS011;5689;48.798;9.070;2024-02-16T10:34:32;0.10;;;0.10;;
11263;SDS011;5689;48.798;9.070;2024-02-16T10:37:03;0.10;;;0.10;;
11263;SDS011;5689;48.798;9.070;2024-02-16T10:39:32;0.10;;;0.10;;
11263;SDS011;5689;48.798;9.070;2024-02-16T10:42:01;0.05;;;0.05;;
11263;SDS011;5689;48.798;9.070;2024-02-16T10:44:30;0.10;;;0.10;;
11263;SDS011;5689;48.798;9.070;2024-02-16T10:46:59;0.10;;;0.10;;
11263;SDS011;5689;48.798;9.070;2024-02-16T10:49:27;0.00;;;0.00;;
11263;SDS011;5689;48.798;9.070;2024-02-16T10:51:56;0.00;;;0.00;;
11263;SDS011;5689;48.798;9.070;2024-02-16T10:54:27;0.10;;;0.10;;
11263;SDS011;5689;48.798;9.070;2024-02-16T10:56:57;0.00;;;0.00;;
11263;SDS011;5689;48.798;9.070;2024-02-16T10:59:26;0.00;;;0.00;;
11263;SDS011;5689;48.798;9.070;2024-02-16T11:01:59;0.00;;;0.00;;
11263;SDS011;5689;48.798;9.070;2024-02-16T11:04:35;0.00;;;0.00;;
11263;SDS011;5689;48.798;9.070;2024-02-16T11:07:10;0.00;;;0.00;;
11263;SDS011;5689;48.798;9.070;2024-02-16T11:09:40;0.10;;;0.10;;
11263;SDS011;5689;48.798;9.070;2024-02-16T11:12:08;0.10;;;0.10;;
11263;SDS011;5689;48.798;9.070;2024-02-16T11:14:40;0.10;;;0.10;;
11263;SDS011;5689;48.798;9.070;2024-02-16T11:17:10;0.10;;;0.10;;
11263;SDS011;5689;48.798;9.070;2024-02-16T11:19:40;0.10;;;0.10;;
11263;SDS011;5689;48.798;9.070;2024-02-16T11:22:08;0.10;;;0.10;;
11263;SDS011;5689;48.798;9.070;2024-02-16T11:24:42;0.00;;;0.00;;
11263;SDS011;5689;48.798;9.070;2024-02-16T11:27:13;0.10;;;0.10;;
11263;SDS011;5689;48.798;9.070;2024-02-16T11:29:45;0.10;;;0.10;;
11263;SDS011;5689;48.798;9.070;2024-02-16T11:32:14;0.10;;;0.10;;
11263;SDS011;5689;48.798;9.070;2024-02-16T11:34:42;0.10;;;0.10;;
11263;SDS011;5689;48.798;9.070;2024-02-16T11:37:10;0.00;;;0.00;;
11263;SDS011;5689;48.798;9.070;2024-02-16T11:39:40;0.10;;;0.10;;
11263;SDS011;5689;48.798;9.070;2024-02-16T11:42:12;0.10;;;0.10;;
11263;SDS011;5689;48.798;9.070;2024-02-16T11:44:50;0.03;;;0.03;;
11263;SDS011;5689;48.798;9.070;2024-02-16T11:47:19;0.10;;;0.10;;
11263;SDS011;5689;48.798;9.070;2024-02-16T11:49:59;0.10;;;0.10;;
11263;SDS011;5689;48.798;9.070;2024-02-16T11:52:28;0.10;;;0.10;;
11263;SDS011;5689;48.798;9.070;2024-02-16T11:54:57;0.10;;;0.10;;
11263;SDS011;5689;48.798;9.070;2024-02-16T11:57:28;0.10;;;0.10;;
11263;SDS011;5689;48.798;9.070;2024-02-16T11:59:57;0.00;;;0.00;;
11263;SDS011;5689;48.798;9.070;2024-02-16T12:02:25;0.10;;;0.10;;
11263;SDS011;5689;48.798;9.070;2024-02-16T12:05:00;0.10;;;0.10;;
11263;SDS011;5689;48.798;9.070;2024-02-16T12:07:28;0.10;;;0.10;;
11263;SDS011;5689;48.798;9.070;2024-02-16T12:09:56;0.10;;;0.10;;
11263;SDS011;5689;48.798;9.070;2024-02-16T12:12:25;0.00;;;0.00;;
11263;SDS011;5689;48.798;9.070;2024-02-16T12:14:55;0.10;;;0.10;;
11263;SDS011;5689;48.798;9.070;2024-02-16T12:17:24;0.10;;;0.10;;
11263;SDS011;5689;48.798;9.070;2024-02-16T12:19:52;0.10;;;0.10;;
11263;SDS011;5689;48.798;9.070;2024-02-16T12:22:21;0.10;;;0.10;;
11263;SDS011;5689;48.798;9.070;2024-02-16T12:24:50;0.10;;;0.10;;
11263;SDS011;5689;48.798;9.070;2024-02-16T12:27:18;0.00;;;0.00;;
11263;SDS011;5689;48.798;9.070;2024-02-16T12:29:46;0.10;;;0.10;;
11263;SDS011;5689;48.798;9.070;2024-02-16T12:32:15;0.10;;;0.10;;
11263;SDS011;5689;48.798;9.070;2024-02-16T12:34:46;0.00;;;0.00;;
11263;SDS011;5689;48.798;9.070;2024-02-16T12:37:14;0.00;;;0.00;;
11263;SDS011;5689;48.798;9.070;2024-02-16T12:39:42;0.10;;;0.10;;
11263;SDS011;5689;48.798;9.070;2024-02-16T12:42:11;0.00;;;0.00;;
11263;SDS011;5689;48.798;9.070;2024-02-16T12:44:40;0.10;;;0.10;;
11263;SDS011;5689;48.798;9.070;2024-02-16T12:47:08;0.10;;;0.10;;
11263;SDS011;5689;48.798;9.070;2024-02-16T12:49:38;0.00;;;0.00;;
11263;SDS011;5689;48.798;9.070;2024-02-16T12:52:06;0.00;;;0.00;;
11263;SDS011;5689;48.798;9.070;2024-02-16T12:54:34;0.10;;;0.10;;
11263;SDS011;5689;48.798;9.070;2024-02-16T12:57:02;0.05;;;0.05;;
11263;SDS011;5689;48.798;9.070;2024-02-16T12:59:31;0.10;;;0.10;;
11263;SDS011;5689;48.798;9.070;2024-02-16T13:01:59;0.10;;;0.10;;
11263;SDS011;5689;48.798;9.070;2024-02-16T13:04:29;0.10;;;0.10;;
11263;SDS011;5689;48.798;9.070;2024-02-16T13:07:00;0.10;;;0.10;;
11263;SDS011;5689;48.798;9.070;2024-02-16T13:09:28;0.00;;;0.00;;
11263;SDS011;5689;48.798;9.070;2024-02-16T13:11:56;0.10;;;0.10;;
11263;SDS011;5689;48.798;9.070;2024-02-16T13:14:24;0.00;;;0.00;;
11263;SDS011;5689;48.798;9.070;2024-02-16T13:16:53;0.00;;;0.00;;
11263;SDS011;5689;48.798;9.070;2024-02-16T13:19:21;0.00;;;0.00;;
11263;SDS011;5689;48.798;9.070;2024-02-16T13:21:50;0.00;;;0.00;;
11263;SDS011;5689;48.798;9.070;2024-02-16T13:24:20;0.10;;;0.10;;
11263;SDS011;5689;48.798;9.070;2024-02-16T13:26:49;0.10;;;0.10;;
11263;SDS011;5689;48.798;9.070;2024-02-16T13:29:17;0.10;;;0.10;;
11263;SDS011;5689;48.798;9.070;2024-02-16T13:31:45;0.00;;;0.00;;
11263;SDS011;5689;48.798;9.070;2024-02-16T13:34:13;0.00;;;0.00;;
11263;SDS011;5689;48.798;9.070;2024-02-16T13:36:42;0.47;;;0.10;;
11263;SDS011;5689;48.798;9.070;2024-02-16T13:39:10;0.00;;;0.00;;
11263;SDS011;5689;48.798;9.070;2024-02-16T13:41:42;0.10;;;0.10;;
11263;SDS011;5689;48.798;9.070;2024-02-16T13:44:12;0.10;;;0.10;;
11263;SDS011;5689;48.798;9.070;2024-02-16T13:46:40;0.10;;;0.10;;
11263;SDS011;5689;48.798;9.070;2024-02-16T13:49:09;0.10;;;0.10;;
11263;SDS011;5689;48.798;9.070;2024-02-16T13:51:37;0.10;;;0.10;;
11263;SDS011;5689;48.798;9.070;2024-02-16T13:54:05;0.05;;;0.05;;
11263;SDS011;5689;48.798;9.070;2024-02-16T13:56:33;0.10;;;0.10;;
11263;SDS011;5689;48.798;9.070;2024-02-16T13:59:04;0.10;;;0.10;;
11263;SDS011;5689;48.798;9.070;2024-02-16T14:01:33;0.10;;;0.10;;
11263;SDS011;5689;48.798;9.070;2024-02-16T14:04:02;0.10;;;0.10;;
11263;SDS011;5689;48.798;9.070;2024-02-16T14:06:31;0.10;;;0.10;;
11263;SDS011;5689;48.798;9.070;2024-02-16T14:08:59;0.10;;;0.10;;
11263;SDS011;5689;48.798;9.070;2024-02-16T14:11:27;0.10;;;0.10;;
11263;SDS011;5689;48.798;9.070;2024-02-16T14:13:55;0.10;;;0.10;;
11263;SDS011;5689;48.798;9.070;2024-02-16T14:16:25;0.08;;;0.08;;
11263;SDS011;5689;48.798;9.070;2024-02-16T14:18:53;0.05;;;0.05;;
11263;SDS011;5689;48.798;9.070;2024-02-16T14:21:21;0.10;;;0.10;;
11263;SDS011;5689;48.798;9.070;2024-02-16T14:23:50;0.10;;;0.10;;
11263;SDS011;5689;48.798;9.070;2024-02-16T14:26:19;0.10;;;0.10;;
11263;SDS011;5689;48.798;9.070;2024-02-16T14:28:47;0.10;;;0.10;;
11263;SDS011;5689;48.798;9.070;2024-02-16T14:31:15;0.10;;;0.10;;
11263;SDS011;5689;48.798;9.070;2024-02-16T14:33:47;0.00;;;0.00;;
11263;SDS011;5689;48.798;9.070;2024-02-16T14:36:16;0.00;;;0.00;;
11263;SDS011;5689;48.798;9.070;2024-02-16T14:38:44;0.00;;;0.00;;
11263;SDS011;5689;48.798;9.070;2024-02-16T14:41:12;0.10;;;0.10;;
11263;SDS011;5689;48.798;9.070;2024-02-16T14:43:42;0.10;;;0.10;;
11263;SDS011;5689;48.798;9.070;2024-02-16T14:46:11;0.10;;;0.10;;
11263;SDS011;5689;48.798;9.070;2024-02-16T14:48:40;0.10;;;0.10;;
11263;SDS011;5689;48.798;9.070;2024-02-16T14:51:10;0.10;;;0.10;;
11263;SDS011;5689;48.798;9.070;2024-02-16T14:53:38;0.10;;;0.10;;
11263;SDS011;5689;48.798;9.070;2024-02-16T14:56:06;0.10;;;0.10;;
11263;SDS011;5689;48.798;9.070;2024-02-16T14:58:34;0.10;;;0.10;;
11263;SDS011;5689;48.798;9.070;2024-02-16T15:01:02;0.10;;;0.10;;
11263;SDS011;5689;48.798;9.070;2024-02-16T15:03:31;0.10;;;0.10;;
11263;SDS011;5689;48.798;9.070;2024-02-16T15:05:59;0.10;;;0.10;;
11263;SDS011;5689;48.798;9.070;2024-02-16T15:08:28;0.10;;;0.10;;
11263;SDS011;5689;48.798;9.070;2024-02-16T15:10:57;0.10;;;0.10;;